Portada
METAR-TAF:

METAR-TAF

Aeroports :

Txengdu, Xina

latitud: 30-40N, longitud: 104-01E, altitud: 508 m

Observació

L'informe es va fer fa 56 minuts, a les 02:00 UTC
Vent 2 kt del Sud-Oest
Temperatura 17°C
Humitat 94%
Pressió 1020 hPa
Visibilitat: 3500 m
Núvols disperses a una alçada de 4000 ft
boirina

METAR: ZUUU 250200Z 22001MPS 3500 BR SCT040 17/16 Q1020 NOSIG

Hora: 10:56 (02:56 UTC)

Pronòstic

L'informe es va fer fa 5 hores i 52 minuts, a les 21:04 UTC
Pronòstic vàlid del 25 a les 00 UTC al 25 a les 24 UTC
Vent 6 kt del Nord/Nord-Est
Visibilitat: 3500 m
Núvols disperses a una alçada de 5000 ft
calitja

TAF: ZUUU 242104Z 2500/2524 02003MPS 3500 HZ SCT050 TX21/2507Z TN16/2522Z

Observacions i pronòstics meteorològics de més de 4000 aeroports (METAR i TAF).

Les estacions disponibles són els punts grocs i vermells al mapa.

Posi el ratolí al punt desitjat per veure el nom de l'estació.

Feu clic per veure les observacions i els pronòstics meteorològics.

Per canviar el mapa: feu clic els botons verds amb una creu de color negre per apropar; al botó verd amb un guió per allunyar la imatge; o en les fletxes verdes per a mapes adjacents.


METAR-TAF: